Time;durP1;ratioP1;P1;durP2;ratioP2;P2;SDS_P1;SDS_P2;PMS_P1;PMS_P2;Temp;Humidity;BMP_temperature;BMP_pressure;BME280_temperature;BME280_humidity;BME280_pressure;Samples;Min_cycle;Max_cycle;Signal;HPM_P1;HPM_P2
2024/03/22 00:01:52;;;;;;;13.77;9.10;;;;;;;12.98;62.77;100598.25;5031636;27;101058;-81
2024/03/22 00:04:18;;;;;;;12.07;9.57;;;;;;;12.69;63.49;100563.34;5029701;27;101358;-81
2024/03/22 00:06:46;;;;;;;15.30;11.27;;;;;;;12.96;63.23;100609.75;5013958;28;96876;-81
2024/03/22 00:09:12;;;;;;;13.18;10.63;;;;;;;12.99;62.86;100599.94;5013918;27;96961;-82
2024/03/22 00:11:39;;;;;;;14.32;10.82;;;;;;;12.64;62.88;100546.00;5031143;27;101285;-81
2024/03/22 00:14:05;;;;;;;14.98;11.27;;;;;;;12.73;63.18;100564.09;5027072;27;100150;-80
2024/03/22 00:16:30;;;;;;;18.70;11.05;;;;;;;12.92;63.28;100593.22;5027484;28;96836;-81
2024/03/22 00:18:57;;;;;;;17.25;12.07;;;;;;;12.91;63.23;100596.75;5026799;27;96860;-81
2024/03/22 00:21:23;;;;;;;19.20;12.35;;;;;;;12.93;63.36;100597.56;5015619;28;101774;-81
2024/03/22 00:23:50;;;;;;;16.75;11.27;;;;;;;12.77;63.52;100599.94;5011457;27;101003;-81
2024/03/22 00:26:16;;;;;;;15.02;11.07;;;;;;;12.64;62.91;100562.66;5016067;27;96841;-81
2024/03/22 00:28:42;;;;;;;13.07;10.15;;;;;;;12.86;62.49;100601.38;5015960;28;97332;-81
2024/03/22 00:31:09;;;;;;;12.75;10.38;;;;;;;12.68;61.48;100571.31;5022417;27;101079;-81
2024/03/22 00:33:34;;;;;;;11.82;10.38;;;;;;;12.50;60.93;100562.34;5019909;28;101332;-81
2024/03/22 00:36:00;;;;;;;11.50;9.60;;;;;;;12.55;60.08;100588.50;5015164;27;96829;-81
2024/03/22 00:38:26;;;;;;;11.25;9.27;;;;;;;12.65;60.12;100597.75;5022899;27;97010;-81
2024/03/22 00:40:51;;;;;;;15.30;10.00;;;;;;;12.51;59.71;100589.53;5017091;27;101047;-81
2024/03/22 00:43:17;;;;;;;11.77;8.68;;;;;;;12.60;59.50;100605.84;5032531;27;102330;-81
2024/03/22 00:45:45;;;;;;;13.77;9.13;;;;;;;12.51;58.98;100597.41;5034797;27;96961;-81
2024/03/22 00:48:11;;;;;;;13.10;9.50;;;;;;;12.38;58.97;100571.56;5033156;27;97070;-81
2024/03/22 00:50:39;;;;;;;11.90;8.02;;;;;;;12.29;59.20;100555.25;5032577;27;101166;-81
2024/03/22 00:53:06;;;;;;;11.15;8.50;;;;;;;12.32;59.08;100563.03;5035635;27;101031;-81
2024/03/22 00:55:31;;;;;;;10.27;8.70;;;;;;;12.37;59.28;100563.72;5038776;27;97329;-82
2024/03/22 00:57:57;;;;;;;11.35;8.18;;;;;;;12.40;58.58;100585.53;5019839;27;96943;-82
2024/03/22 01:00:24;;;;;;;13.25;9.98;;;;;;;12.39;58.79;100591.72;5023126;27;99021;-82
2024/03/22 01:02:50;;;;;;;11.73;9.55;;;;;;;12.49;58.89;100604.53;5019691;27;102107;-82
2024/03/22 01:05:17;;;;;;;12.75;10.18;;;;;;;12.13;58.39;100561.09;5016440;27;97312;-82
2024/03/22 01:07:42;;;;;;;14.02;9.77;;;;;;;12.22;58.33;100568.66;5035882;27;97203;-82
2024/03/22 01:10:08;;;;;;;12.95;9.90;;;;;;;12.13;58.03;100563.72;5031851;27;103044;-81
2024/03/22 01:12:36;;;;;;;11.95;9.27;;;;;;;12.33;58.24;100594.56;5015383;27;101041;-81
2024/03/22 01:15:01;;;;;;;12.40;9.43;;;;;;;12.29;58.33;100579.81;5013590;27;96806;-82
2024/03/22 01:17:27;;;;;;;15.40;10.43;;;;;;;12.35;58.13;100589.25;5035113;27;96864;-82
2024/03/22 01:19:52;;;;;;;10.77;9.27;;;;;;;12.35;57.87;100597.16;5048666;27;97400;-82
2024/03/22 01:22:18;;;;;;;13.15;9.60;;;;;;;12.18;58.20;100584.59;5019068;27;101265;-82
2024/03/22 01:24:45;;;;;;;10.70;9.07;;;;;;;12.13;58.05;100579.53;5035248;27;96815;-83
2024/03/22 01:27:11;;;;;;;10.75;8.80;;;;;;;11.94;58.16;100550.38;5036032;27;98197;-81
2024/03/22 01:29:37;;;;;;;10.45;8.85;;;;;;;11.85;57.93;100539.28;5031016;27;101349;-82
2024/03/22 01:32:03;;;;;;;11.43;8.45;;;;;;;12.10;58.28;100586.63;5012542;28;99523;-82
2024/03/22 01:34:29;;;;;;;12.75;9.20;;;;;;;11.97;58.84;100587.09;5019542;27;98039;-82
2024/03/22 01:36:54;;;;;;;12.73;8.82;;;;;;;11.71;59.03;100540.63;5010685;27;97543;-82
2024/03/22 01:39:23;;;;;;;11.30;8.75;;;;;;;11.68;58.98;100537.25;5014732;28;100932;-82
2024/03/22 01:41:49;;;;;;;11.05;8.35;;;;;;;11.61;59.28;100543.66;5014803;27;99314;-82
2024/03/22 01:44:15;;;;;;;10.52;7.28;;;;;;;11.89;59.74;100573.34;5032240;27;96909;-81
2024/03/22 01:46:42;;;;;;;9.88;7.40;;;;;;;11.94;59.21;100562.66;5021103;27;96847;-81
2024/03/22 01:49:14;;;;;;;8.85;7.47;;;;;;;11.91;59.86;100554.88;5035205;27;100717;-81
2024/03/22 01:51:40;;;;;;;11.85;7.45;;;;;;;11.84;59.82;100551.59;5025509;27;101265;-82
2024/03/22 01:54:10;;;;;;;11.43;7.63;;;;;;;11.57;59.54;100517.44;5020744;27;96824;-81
2024/03/22 01:56:39;;;;;;;11.93;7.93;;;;;;;11.81;60.14;100556.06;5021528;27;96856;-81
2024/03/22 01:59:06;;;;;;;10.60;7.72;;;;;;;11.70;59.93;100543.34;5017267;27;101203;-81
2024/03/22 02:01:32;;;;;;;10.00;8.07;;;;;;;11.55;60.56;100526.31;5028946;27;101392;-82
2024/03/22 02:03:58;;;;;;;11.25;7.90;;;;;;;11.82;60.36;100557.81;5034575;27;97441;-82
2024/03/22 02:06:24;;;;;;;9.00;7.50;;;;;;;11.56;60.75;100522.78;5032850;27;96915;-81
2024/03/22 02:08:49;;;;;;;9.48;7.80;;;;;;;11.80;61.10;100555.22;5017959;27;97427;-81
2024/03/22 02:11:15;;;;;;;10.35;8.40;;;;;;;11.55;61.39;100508.78;5037640;27;99654;-81
2024/03/22 02:13:43;;;;;;;10.00;7.70;;;;;;;11.82;61.08;100549.94;5030378;27;96770;-81
2024/03/22 02:16:08;;;;;;;12.15;8.70;;;;;;;11.62;60.63;100498.03;5036553;27;97423;-81
2024/03/22 02:18:34;;;;;;;9.60;7.75;;;;;;;11.43;61.09;100482.03;5016899;27;101402;-81
2024/03/22 02:20:59;;;;;;;9.07;7.45;;;;;;;11.64;61.48;100509.38;5032280;27;101498;-82
2024/03/22 02:23:39;;;;;;;11.32;8.10;;;;;;;11.75;61.73;100528.22;5017851;27;97178;-82
2024/03/22 02:26:06;;;;;;;10.32;8.18;;;;;;;11.64;61.70;100520.75;5018843;27;98105;-82
2024/03/22 02:28:33;;;;;;;13.57;8.20;;;;;;;11.72;62.06;100537.09;5025489;27;102042;-82
2024/03/22 02:31:00;;;;;;;8.77;7.35;;;;;;;11.79;61.89;100538.59;5025995;27;97535;-82
2024/03/22 02:33:26;;;;;;;12.45;8.25;;;;;;;11.81;62.39;100556.97;5010447;27;96807;-82
2024/03/22 02:35:52;;;;;;;10.52;7.80;;;;;;;11.61;62.28;100527.88;5020847;27;97193;-81
2024/03/22 02:38:18;;;;;;;9.98;8.27;;;;;;;11.73;62.14;100530.06;5040894;27;102071;-82
2024/03/22 02:40:44;;;;;;;9.38;8.20;;;;;;;11.72;61.81;100518.69;5016747;27;101272;-82
2024/03/22 02:43:10;;;;;;;11.02;8.80;;;;;;;11.60;62.29;100507.75;5017353;27;96801;-82
2024/03/22 02:45:36;;;;;;;11.05;8.98;;;;;;;11.68;62.46;100524.97;5034174;27;96834;-82
2024/03/22 02:48:01;;;;;;;12.20;9.15;;;;;;;11.75;62.28;100541.38;5024675;27;100769;-82
2024/03/22 02:50:27;;;;;;;22.65;9.38;;;;;;;11.81;62.24;100551.69;5015758;27;101168;-82
2024/03/22 02:52:52;;;;;;;13.48;9.57;;;;;;;11.81;62.42;100550.81;5011506;27;97133;-82
2024/03/22 02:55:18;;;;;;;11.57;8.98;;;;;;;11.82;62.53;100540.25;5036342;27;97019;-81
2024/03/22 02:57:43;;;;;;;11.25;9.18;;;;;;;11.68;62.65;100522.34;5027780;27;101068;-82
2024/03/22 03:00:10;;;;;;;13.82;10.02;;;;;;;11.55;63.35;100514.03;5034175;27;99698;-81
2024/03/22 03:02:36;;;;;;;11.38;9.32;;;;;;;11.35;63.64;100498.09;5019996;27;97500;-82
2024/03/22 03:05:05;;;;;;;13.45;10.40;;;;;;;11.39;64.00;100491.81;5033188;27;97152;-82
2024/03/22 03:07:32;;;;;;;15.40;10.52;;;;;;;11.83;63.23;100544.59;5029832;27;101146;-82
2024/03/22 03:09:58;;;;;;;15.02;10.63;;;;;;;11.82;63.15;100540.25;5034657;27;100727;-82
2024/03/22 03:12:23;;;;;;;13.18;11.20;;;;;;;11.35;64.08;100474.44;5028247;27;97593;-82
2024/03/22 03:14:49;;;;;;;14.75;12.05;;;;;;;11.73;65.24;100543.22;5016815;27;97181;-82
2024/03/22 03:17:16;;;;;;;14.75;11.60;;;;;;;11.73;65.15;100537.97;5034854;27;101453;-82
2024/03/22 03:19:41;;;;;;;15.13;12.35;;;;;;;11.63;65.74;100513.75;5049631;27;99791;-82
2024/03/22 03:22:08;;;;;;;15.10;12.35;;;;;;;11.65;65.90;100535.59;5033632;27;97120;-82
2024/03/22 03:24:33;;;;;;;15.73;13.25;;;;;;;11.39;66.27;100489.19;5038026;27;97444;-82
2024/03/22 03:26:59;;;;;;;17.42;13.50;;;;;;;11.71;65.99;100527.47;5029422;27;101780;-82
2024/03/22 03:29:25;;;;;;;17.10;12.85;;;;;;;11.45;66.42;100480.22;5027851;27;100627;-83
2024/03/22 03:31:50;;;;;;;18.45;14.40;;;;;;;11.50;66.42;100486.19;5040049;27;97915;-81
2024/03/22 03:34:16;;;;;;;17.38;13.85;;;;;;;11.70;66.48;100512.63;5036777;27;97181;-82
2024/03/22 03:36:42;;;;;;;17.35;13.70;;;;;;;11.53;67.00;100505.31;5024435;27;100316;-82
2024/03/22 03:39:08;;;;;;;18.85;15.52;;;;;;;11.57;66.64;100499.03;5016909;27;101894;-82
2024/03/22 03:41:37;;;;;;;16.92;14.35;;;;;;;11.74;66.89;100518.63;5009699;27;97131;-82
2024/03/22 03:44:03;;;;;;;16.08;13.68;;;;;;;11.63;66.55;100489.22;5033694;27;96893;-82
2024/03/22 03:46:29;;;;;;;18.75;13.10;;;;;;;11.77;66.57;100516.75;5013247;27;101550;-82
2024/03/22 03:48:54;;;;;;;19.45;13.48;;;;;;;11.76;66.31;100511.56;5042177;27;100701;-82
2024/03/22 03:51:21;;;;;;;19.67;14.15;;;;;;;11.71;66.32;100511.69;5036752;27;97290;-82
2024/03/22 03:53:47;;;;;;;20.02;14.48;;;;;;;11.29;67.03;100458.88;5033084;27;97439;-82
2024/03/22 03:56:13;;;;;;;19.08;13.38;;;;;;;11.41;66.69;100484.72;5029648;27;101557;-82
2024/03/22 03:58:39;;;;;;;17.65;13.27;;;;;;;11.47;66.70;100486.28;5065130;27;98557;-82
2024/03/22 04:01:06;;;;;;;16.90;13.57;;;;;;;11.57;66.87;100504.28;5047257;27;97256;-82
2024/03/22 04:03:32;;;;;;;17.38;13.10;;;;;;;11.42;66.81;100482.97;5017642;27;97532;-82
2024/03/22 04:05:58;;;;;;;18.33;14.85;;;;;;;11.63;66.38;100512.88;5033220;27;97798;-82
2024/03/22 04:08:25;;;;;;;18.13;13.13;;;;;;;11.51;66.97;100522.91;5035065;27;100979;-83
2024/03/22 04:10:58;;;;;;;15.55;12.93;;;;;;;11.43;66.97;100513.56;5036599;27;96724;-82
2024/03/22 04:13:24;;;;;;;17.25;13.82;;;;;;;11.36;66.97;100478.78;5036961;27;97028;-81
2024/03/22 04:15:50;;;;;;;16.50;13.70;;;;;;;11.58;66.92;100513.06;5036821;27;97347;-82
2024/03/22 04:18:16;;;;;;;19.00;13.02;;;;;;;11.57;66.95;100517.44;5039719;27;100789;-82
2024/03/22 04:20:43;;;;;;;16.77;12.82;;;;;;;11.25;66.51;100465.13;5046906;27;96728;-82
2024/03/22 04:23:10;;;;;;;16.73;13.15;;;;;;;11.60;66.64;100526.16;5035557;27;96934;-81
2024/03/22 04:25:35;;;;;;;15.82;13.25;;;;;;;11.69;66.49;100515.28;5029221;27;101413;-83
2024/03/22 04:28:03;;;;;;;14.88;12.35;;;;;;;11.67;66.34;100510.09;5034624;27;100487;-82
2024/03/22 04:30:29;;;;;;;18.25;12.85;;;;;;;11.66;66.41;100516.25;5029211;27;96929;-82
2024/03/22 04:32:55;;;;;;;14.52;11.20;;;;;;;11.67;66.29;100520.63;5034972;27;97927;-82
2024/03/22 04:35:20;;;;;;;15.07;12.50;;;;;;;11.41;66.47;100479.47;5016296;27;101973;-82
2024/03/22 04:37:46;;;;;;;16.13;12.18;;;;;;;11.52;66.29;100482.59;5018918;27;101195;-82
2024/03/22 04:40:14;;;;;;;15.55;12.82;;;;;;;11.66;66.39;100516.25;5019293;27;96796;-82
2024/03/22 04:42:39;;;;;;;19.92;13.55;;;;;;;11.44;66.15;100491.66;5023384;27;97572;-81
2024/03/22 04:45:05;;;;;;;14.93;12.30;;;;;;;11.26;66.67;100461.63;5023849;27;101596;-82
2024/03/22 04:47:30;;;;;;;17.92;12.55;;;;;;;11.68;66.10;100530.22;5019446;27;100192;-83
2024/03/22 04:49:56;;;;;;;15.13;12.50;;;;;;;11.33;66.11;100474.47;5010128;27;97104;-82
2024/03/22 04:52:21;;;;;;;18.05;12.25;;;;;;;11.61;66.02;100509.47;5027528;27;97286;-81
2024/03/22 04:54:49;;;;;;;18.83;13.10;;;;;;;11.35;66.46;100470.97;5008057;27;100432;-82
2024/03/22 04:57:14;;;;;;;15.43;12.90;;;;;;;11.51;66.73;100519.44;5014165;27;100817;-81
2024/03/22 04:59:40;;;;;;;17.40;13.50;;;;;;;11.62;66.28;100532.22;5040058;27;96756;-81
2024/03/22 05:02:05;;;;;;;15.02;12.55;;;;;;;11.30;66.62;100490.34;5037139;27;97297;-82
2024/03/22 05:04:32;;;;;;;14.82;13.18;;;;;;;11.30;66.60;100500.88;5042072;27;100937;-81
2024/03/22 05:06:58;;;;;;;15.90;12.80;;;;;;;11.50;66.67;100521.22;5019748;27;101440;-82
2024/03/22 05:09:23;;;;;;;13.60;11.55;;;;;;;11.46;66.79;100522.25;5011918;27;97213;-81
2024/03/22 05:11:50;;;;;;;14.63;11.77;;;;;;;11.40;67.06;100527.69;5022031;27;97071;-82
2024/03/22 05:14:18;;;;;;;13.68;10.98;;;;;;;11.36;66.64;100514.72;5028940;27;101111;-82
2024/03/22 05:16:43;;;;;;;13.73;11.60;;;;;;;11.45;67.17;100515.25;5040514;27;97163;-81
2024/03/22 05:19:10;;;;;;;16.05;11.63;;;;;;;11.22;67.81;100476.59;5037592;27;96800;-80
2024/03/22 05:21:36;;;;;;;17.65;12.63;;;;;;;11.27;67.83;100481.72;5046702;27;98041;-80
2024/03/22 05:24:03;;;;;;;15.10;12.10;;;;;;;11.50;68.62;100517.72;5018824;27;101146;-81
2024/03/22 05:26:32;;;;;;;14.00;11.75;;;;;;;11.37;68.68;100509.38;5023603;27;99822;-81
2024/03/22 05:28:58;;;;;;;14.00;12.02;;;;;;;11.42;68.79;100515.34;5012098;27;97263;-83
2024/03/22 05:31:23;;;;;;;14.68;12.07;;;;;;;11.05;69.69;100477.22;5044693;27;97396;-82
2024/03/22 05:33:55;;;;;;;13.30;11.60;;;;;;;11.27;69.67;100524.63;5038505;27;99030;-82
2024/03/22 05:36:21;;;;;;;13.32;11.30;;;;;;;11.24;70.05;100523.88;5021424;27;102103;-82
2024/03/22 05:38:46;;;;;;;16.40;12.35;;;;;;;11.30;70.17;100532.41;5032961;27;97646;-82
2024/03/22 05:41:13;;;;;;;15.38;11.73;;;;;;;11.27;69.67;100522.00;5018346;27;97151;-81
2024/03/22 05:43:38;;;;;;;16.27;12.38;;;;;;;11.32;69.64;100525.34;5021962;27;103093;-81
2024/03/22 05:46:04;;;;;;;15.45;11.10;;;;;;;11.10;69.53;100492.78;5052549;27;97331;-82
2024/03/22 05:48:30;;;;;;;16.95;12.70;;;;;;;11.25;69.74;100517.69;5035189;27;97993;-82
2024/03/22 05:50:55;;;;;;;15.23;11.95;;;;;;;11.38;69.20;100537.41;5059827;27;97213;-81
2024/03/22 05:53:21;;;;;;;15.05;11.77;;;;;;;11.24;68.88;100503.69;5049254;27;100867;-79
2024/03/22 05:55:46;;;;;;;18.45;11.25;;;;;;;11.42;68.69;100532.91;5049948;27;97920;-80
2024/03/22 05:58:12;;;;;;;19.75;11.60;;;;;;;11.36;68.44;100505.06;5036721;27;96797;-81
2024/03/22 06:00:38;;;;;;;15.05;11.48;;;;;;;11.44;68.45;100517.94;5034166;27;97685;-84
2024/03/22 06:03:03;;;;;;;16.23;10.98;;;;;;;11.39;68.78;100511.97;5037985;27;99764;-79
2024/03/22 06:05:29;;;;;;;14.50;12.02;;;;;;;11.45;68.51;100511.75;5056761;27;100784;-80
2024/03/22 06:07:54;;;;;;;15.85;12.15;;;;;;;11.57;68.50;100543.72;5041511;27;97024;-82
2024/03/22 06:10:20;;;;;;;17.63;12.45;;;;;;;11.55;68.33;100542.94;5040181;27;96902;-79
2024/03/22 06:12:47;;;;;;;18.63;12.45;;;;;;;11.43;68.29;100509.22;5038480;27;101435;-78
2024/03/22 06:15:12;;;;;;;15.15;11.75;;;;;;;11.44;68.86;100539.81;5044856;27;97579;-77
2024/03/22 06:17:38;;;;;;;15.23;12.40;;;;;;;11.39;68.45;100512.84;5006936;27;96710;-78
2024/03/22 06:20:05;;;;;;;16.67;12.75;;;;;;;11.50;68.42;100523.00;5073337;27;96752;-78
2024/03/22 06:22:30;;;;;;;16.58;11.80;;;;;;;11.48;67.92;100502.00;5045093;27;98033;-78
2024/03/22 06:24:56;;;;;;;15.70;10.90;;;;;;;11.51;67.38;100512.41;5065901;27;97422;-78
2024/03/22 06:27:22;;;;;;;15.60;11.52;;;;;;;11.62;67.52;100533.06;5050669;27;96834;-78
2024/03/22 06:29:47;;;;;;;15.40;12.38;;;;;;;11.56;67.29;100528.03;5046718;27;97298;-78
2024/03/22 06:32:13;;;;;;;15.80;12.48;;;;;;;11.39;67.17;100473.41;5045069;27;101180;-78
2024/03/22 06:34:38;;;;;;;16.38;11.63;;;;;;;11.73;66.54;100524.81;5033504;27;97791;-78
2024/03/22 06:37:04;;;;;;;16.90;13.30;;;;;;;11.73;66.52;100520.41;5038568;27;97839;-78
2024/03/22 06:39:30;;;;;;;16.48;11.93;;;;;;;11.78;66.39;100526.38;5038534;27;97005;-78
2024/03/22 06:41:55;;;;;;;20.17;12.40;;;;;;;11.75;66.17;100526.47;5036451;27;97655;-78
2024/03/22 06:44:22;;;;;;;15.32;11.93;;;;;;;11.59;65.75;100503.41;5038458;27;101258;-78
2024/03/22 06:46:49;;;;;;;14.25;11.68;;;;;;;11.74;65.51;100522.13;5046609;27;97292;-79
2024/03/22 06:49:14;;;;;;;18.00;12.00;;;;;;;11.85;65.12;100519.13;5040028;27;96815;-82
2024/03/22 06:51:40;;;;;;;17.17;12.75;;;;;;;12.02;64.79;100521.16;5031593;27;98052;-82
2024/03/22 06:54:05;;;;;;;17.20;13.20;;;;;;;11.96;64.31;100510.88;5031802;27;101199;-84
2024/03/22 06:56:31;;;;;;;16.30;13.13;;;;;;;11.96;63.68;100505.59;5034621;27;97250;-83
2024/03/22 06:58:56;;;;;;;19.30;13.63;;;;;;;11.76;63.53;100486.09;5019689;27;98147;-82
2024/03/22 07:01:22;;;;;;;17.00;13.27;;;;;;;12.04;62.82;100511.41;5052680;27;98457;-82
2024/03/22 07:03:47;;;;;;;19.48;13.45;;;;;;;11.85;63.22;100484.06;5049022;27;98289;-82
2024/03/22 07:06:15;;;;;;;15.85;12.57;;;;;;;12.08;62.99;100512.19;5055466;27;97159;-81
2024/03/22 07:08:41;;;;;;;19.77;14.75;;;;;;;11.81;62.63;100454.38;5027392;27;97326;-82
2024/03/22 07:11:07;;;;;;;17.70;12.85;;;;;;;12.09;62.65;100490.22;5062895;27;101235;-82
2024/03/22 07:13:32;;;;;;;17.17;13.02;;;;;;;12.16;62.99;100499.59;5035718;27;100034;-81
2024/03/22 07:15:58;;;;;;;17.25;12.98;;;;;;;12.16;62.97;100499.59;5018401;27;96866;-82
2024/03/22 07:18:30;;;;;;;17.63;12.80;;;;;;;11.91;63.15;100473.34;5017328;27;97242;-83
2024/03/22 07:21:14;;;;;;;17.77;12.68;;;;;;;12.11;62.51;100496.28;5042998;27;100540;-83
2024/03/22 07:23:40;;;;;;;16.75;12.55;;;;;;;11.89;62.92;100456.75;5022108;27;99578;-83
2024/03/22 07:26:07;;;;;;;25.55;14.68;;;;;;;12.00;63.19;100500.16;5019515;27;96938;-84
2024/03/22 07:28:51;;;;;;;19.60;13.57;;;;;;;11.98;63.17;100482.72;5040654;27;96899;-83
2024/03/22 07:31:17;;;;;;;19.80;13.95;;;;;;;12.11;62.81;100483.97;5041042;27;101473;-84
2024/03/22 07:33:42;;;;;;;21.10;14.15;;;;;;;12.17;63.21;100491.63;5019127;27;101430;-84
2024/03/22 07:36:09;;;;;;;17.13;13.13;;;;;;;12.06;63.01;100506.13;5040197;27;96787;-83
2024/03/22 07:38:35;;;;;;;21.27;15.13;;;;;;;12.10;62.43;100484.03;5013903;27;98025;-82
2024/03/22 07:41:00;;;;;;;17.67;13.55;;;;;;;12.10;62.04;100478.75;5048650;27;101722;-83
2024/03/22 07:43:26;;;;;;;28.95;16.58;;;;;;;12.32;61.64;100510.41;5032336;27;100962;-82
2024/03/22 07:45:51;;;;;;;19.55;13.88;;;;;;;12.34;61.41;100509.44;5045323;27;97136;-83
2024/03/22 07:48:17;;;;;;;26.00;14.45;;;;;;;11.89;61.38;100459.38;5046557;27;97681;-83
2024/03/22 07:50:43;;;;;;;19.23;13.35;;;;;;;12.29;61.31;100495.56;5046294;27;100173;-83
2024/03/22 07:53:09;;;;;;;17.63;13.60;;;;;;;12.31;60.88;100477.09;5014647;27;101476;-82
2024/03/22 07:55:34;;;;;;;17.85;12.60;;;;;;;12.28;60.37;100482.50;5033452;27;96888;-82
2024/03/22 07:58:00;;;;;;;16.40;12.88;;;;;;;12.31;60.46;100453.41;5036101;27;96923;-84
2024/03/22 08:00:25;;;;;;;19.33;13.32;;;;;;;12.52;60.23;100478.88;5027510;27;101886;-82
2024/03/22 08:02:51;;;;;;;20.95;13.93;;;;;;;13.05;59.05;100481.09;5043724;27;101477;-82
2024/03/22 08:05:17;;;;;;;17.00;12.80;;;;;;;14.07;56.60;100472.28;5043266;27;97421;-83
2024/03/22 08:07:45;;;;;;;25.70;15.23;;;;;;;15.83;52.73;100468.88;5039378;27;97132;-84
2024/03/22 08:10:11;;;;;;;17.92;13.77;;;;;;;19.43;45.04;100455.84;5035580;27;101168;-82
2024/03/22 08:12:36;;;;;;;15.48;12.32;;;;;;;21.41;40.93;100455.69;5012014;27;101467;-83
2024/03/22 08:15:02;;;;;;;17.83;13.20;;;;;;;21.93;39.52;100440.06;5030258;27;98073;-81
2024/03/22 08:17:28;;;;;;;17.83;14.05;;;;;;;21.02;40.43;100447.06;5017043;27;97321;-83
2024/03/22 08:19:53;;;;;;;18.10;12.38;;;;;;;19.94;43.77;100425.72;5032301;27;97565;-83
2024/03/22 08:22:19;;;;;;;14.68;9.57;;;;;;;19.34;44.57;100440.50;5049215;27;97686;-78
2024/03/22 08:24:45;;;;;;;18.15;10.15;;;;;;;20.15;42.44;100410.84;5050420;27;96914;-77
2024/03/22 08:27:10;;;;;;;16.05;10.65;;;;;;;21.16;40.59;100426.47;5047126;27;97496;-75
2024/03/22 08:29:37;;;;;;;15.02;10.82;;;;;;;19.90;42.23;100422.44;5051018;27;97502;-76
2024/03/22 08:32:04;;;;;;;15.73;11.23;;;;;;;19.62;42.33;100419.00;5047736;27;98074;-77
2024/03/22 08:34:32;;;;;;;17.83;10.70;;;;;;;21.29;40.28;100411.22;5044061;27;96834;-76
2024/03/22 08:36:58;;;;;;;18.17;11.77;;;;;;;22.32;36.92;100400.44;5042079;27;97687;-77
2024/03/22 08:39:24;;;;;;;17.05;12.60;;;;;;;24.22;35.01;100407.41;5053636;27;97639;-77
2024/03/22 08:41:50;;;;;;;18.75;11.82;;;;;;;25.72;31.69;100393.44;5032468;27;101523;-77
2024/03/22 08:44:15;;;;;;;16.95;11.40;;;;;;;26.80;30.64;100376.47;5035416;27;96798;-77
2024/03/22 08:46:41;;;;;;;16.90;10.80;;;;;;;29.45;27.67;100392.34;5048928;27;96975;-77
2024/03/22 08:49:06;;;;;;;13.20;9.85;;;;;;;31.68;24.70;100364.34;5061360;27;98377;-78
2024/03/22 08:51:32;;;;;;;12.88;10.27;;;;;;;32.91;22.88;100383.28;5088923;27;97478;-78
2024/03/22 08:53:57;;;;;;;14.77;10.50;;;;;;;34.88;21.62;100369.13;5031628;27;97885;-80
2024/03/22 08:56:23;;;;;;;14.32;12.65;;;;;;;30.76;24.67;100365.44;5042539;27;97260;-77
2024/03/22 08:58:49;;;;;;;15.25;13.65;;;;;;;26.20;29.02;100374.34;5052300;27;97535;-79
2024/03/22 09:01:15;;;;;;;13.23;11.93;;;;;;;28.29;27.82;100376.28;5055075;27;98710;-77
2024/03/22 09:03:40;;;;;;;14.23;12.82;;;;;;;26.31;29.59;100369.78;5046452;27;96802;-80
2024/03/22 09:06:06;;;;;;;13.80;12.40;;;;;;;25.25;30.94;100363.91;5033371;27;96882;-77
2024/03/22 09:08:33;;;;;;;14.32;12.10;;;;;;;26.27;29.68;100357.59;5045768;27;98201;-77
2024/03/22 09:10:58;;;;;;;13.30;11.98;;;;;;;25.85;30.10;100342.88;5049940;27;97218;-77
2024/03/22 09:13:25;;;;;;;17.55;13.48;;;;;;;24.61;31.54;100362.72;5045432;27;96921;-77
2024/03/22 09:15:57;;;;;;;12.95;11.57;;;;;;;23.16;34.10;100336.31;5039507;27;96870;-77
2024/03/22 09:18:23;;;;;;;15.57;11.60;;;;;;;22.52;35.15;100358.69;5038948;27;98183;-77
2024/03/22 09:20:48;;;;;;;15.20;11.95;;;;;;;21.61;36.53;100360.69;5029047;27;98451;-76
2024/03/22 09:23:14;;;;;;;16.42;11.52;;;;;;;21.00;37.20;100349.41;5054603;27;96886;-76
2024/03/22 09:25:39;;;;;;;13.30;10.63;;;;;;;20.54;38.09;100351.09;5039404;27;97329;-76
2024/03/22 09:28:05;;;;;;;14.63;10.50;;;;;;;20.11;38.87;100370.25;5055035;27;97594;-76
2024/03/22 09:30:30;;;;;;;12.88;10.57;;;;;;;19.80;39.06;100344.13;5054004;27;97316;-77
2024/03/22 09:32:55;;;;;;;14.10;10.73;;;;;;;20.16;38.83;100337.06;5037864;27;96861;-77
2024/03/22 09:35:21;;;;;;;12.65;8.88;;;;;;;20.24;39.01;100370.19;5028657;27;97382;-77
2024/03/22 09:37:47;;;;;;;12.52;10.07;;;;;;;19.91;40.12;100357.53;5028132;27;98188;-77
2024/03/22 09:40:13;;;;;;;10.73;8.90;;;;;;;19.13;40.67;100339.06;5037022;27;97555;-76
2024/03/22 09:42:40;;;;;;;12.95;9.05;;;;;;;18.72;41.64;100362.19;5045044;27;98303;-77
2024/03/22 09:45:10;;;;;;;12.90;9.18;;;;;;;18.50;42.12;100362.78;5047899;27;98090;-82
2024/03/22 09:47:37;;;;;;;14.23;9.32;;;;;;;18.44;41.45;100317.13;5044232;27;98248;-76
2024/03/22 09:50:06;;;;;;;11.27;8.00;;;;;;;18.15;41.89;100327.91;5044494;27;98409;-79
2024/03/22 09:52:33;;;;;;;13.05;8.02;;;;;;;18.14;41.65;100323.53;5026640;27;97362;-79
2024/03/22 09:54:59;;;;;;;15.50;8.77;;;;;;;18.07;42.19;100354.97;5027725;27;97376;-77
2024/03/22 09:57:24;;;;;;;11.68;8.57;;;;;;;17.96;42.47;100352.16;5028948;27;98186;-79
2024/03/22 09:59:51;;;;;;;14.10;9.40;;;;;;;17.73;42.79;100356.22;5045255;27;97921;-77
2024/03/22 10:02:17;;;;;;;11.60;8.65;;;;;;;17.51;43.21;100335.50;5035339;27;98572;-78
2024/03/22 10:04:43;;;;;;;13.40;9.50;;;;;;;17.30;43.82;100344.78;5025413;27;97381;-79
2024/03/22 10:07:13;;;;;;;15.32;9.25;;;;;;;17.02;43.92;100322.63;5021373;27;101039;-79
2024/03/22 10:09:39;;;;;;;13.48;8.65;;;;;;;17.02;44.65;100342.97;5042215;27;98114;-80
2024/03/22 10:12:04;;;;;;;13.05;8.80;;;;;;;16.90;44.43;100345.41;5043950;27;98356;-80
2024/03/22 10:14:31;;;;;;;14.57;9.20;;;;;;;17.02;44.52;100330.56;5032140;27;98236;-80
2024/03/22 10:16:57;;;;;;;16.42;9.25;;;;;;;17.18;44.17;100344.59;5013907;27;100592;-80
2024/03/22 10:19:23;;;;;;;10.55;8.65;;;;;;;17.38;44.18;100340.72;5020101;27;101065;-80
2024/03/22 10:22:02;;;;;;;13.15;8.52;;;;;;;17.34;43.46;100327.75;5038364;27;97185;-80
2024/03/22 10:24:28;;;;;;;13.05;8.93;;;;;;;17.31;43.86;100299.59;5040001;27;97301;-81
2024/03/22 10:26:54;;;;;;;12.32;9.40;;;;;;;17.67;43.58;100322.13;5037995;27;99875;-82
2024/03/22 10:29:22;;;;;;;13.32;8.38;;;;;;;17.88;43.36;100318.09;5011480;27;101056;-80
2024/03/22 10:31:51;;;;;;;13.45;10.00;;;;;;;18.21;43.46;100302.72;5007151;27;98952;-80
2024/03/22 10:34:17;;;;;;;16.00;10.13;;;;;;;18.66;42.97;100295.28;5044539;27;98241;-80
2024/03/22 10:36:46;;;;;;;12.95;9.68;;;;;;;19.10;41.20;100308.22;5011270;27;101451;-79
2024/03/22 10:39:13;;;;;;;12.85;8.82;;;;;;;18.66;41.10;100301.44;5027035;27;98101;-80
2024/03/22 10:41:39;;;;;;;13.88;8.93;;;;;;;18.60;40.95;100271.78;5046532;27;98229;-80
2024/03/22 10:44:04;;;;;;;10.32;7.80;;;;;;;18.69;40.80;100274.66;5030971;27;98132;-80
2024/03/22 10:46:30;;;;;;;11.73;8.90;;;;;;;18.61;41.00;100249.56;5029706;27;98014;-83
2024/03/22 10:48:57;;;;;;;11.25;8.20;;;;;;;18.84;40.84;100267.47;5041055;27;98095;-79
2024/03/22 10:51:24;;;;;;;14.00;9.77;;;;;;;18.84;40.93;100285.22;5041171;27;97060;-77
2024/03/22 10:53:54;;;;;;;10.95;7.90;;;;;;;18.85;40.85;100289.59;5053412;27;96889;-77
2024/03/22 10:56:22;;;;;;;14.35;9.90;;;;;;;17.95;41.43;100289.38;5052845;27;98078;-77
2024/03/22 10:58:49;;;;;;;13.23;9.13;;;;;;;18.10;41.79;100274.22;5044824;27;101168;-78
2024/03/22 11:01:25;;;;;;;12.38;8.57;;;;;;;18.64;40.96;100275.94;5043212;27;96793;-78
2024/03/22 11:03:51;;;;;;;12.98;8.32;;;;;;;18.76;40.66;100283.09;5027005;27;97166;-77
2024/03/22 11:06:21;;;;;;;13.93;8.82;;;;;;;18.71;40.94;100278.06;5036099;27;101668;-77